sensor_id;sensor_type;location;lat;lon;timestamp;pressure;altitude;pressure_sealevel;temperature;humidity
83691;BME280;73671;43.220;0.064;2024-03-08T00:00:00;96486.56;;;10.91;58.11
83691;BME280;73671;43.220;0.064;2024-03-08T00:02:34;96476.72;;;10.78;58.05
83691;BME280;73671;43.220;0.064;2024-03-08T00:05:00;96474.28;;;10.80;100.00
83691;BME280;73671;43.220;0.064;2024-03-08T00:07:25;96476.72;;;10.78;58.09
83691;BME280;73671;43.220;0.064;2024-03-08T00:09:53;91321.38;;;10.77;100.00
83691;BME280;73671;43.220;0.064;2024-03-08T00:12:18;96469.78;;;10.77;57.96
83691;BME280;73671;43.220;0.064;2024-03-08T00:14:43;96469.78;;;10.77;57.96
83691;BME280;73671;43.220;0.064;2024-03-08T00:17:10;96465.47;;;10.71;57.99
83691;BME280;73671;43.220;0.064;2024-03-08T00:19:35;96475.63;;;10.70;58.35
83691;BME280;73671;43.220;0.064;2024-03-08T00:22:02;96480.69;;;10.63;58.89
83691;BME280;73671;43.220;0.064;2024-03-08T00:24:27;96478.63;;;10.57;59.27
83691;BME280;73671;43.220;0.064;2024-03-08T00:26:54;96479.50;;;10.49;59.38
83691;BME280;73671;43.220;0.064;2024-03-08T00:29:20;96479.41;;;10.43;60.32
83691;BME280;73671;43.220;0.064;2024-03-08T00:31:47;96467.56;;;10.31;60.95
83691;BME280;73671;43.220;0.064;2024-03-08T00:34:12;96461.53;;;10.27;60.75
83691;BME280;73671;43.220;0.064;2024-03-08T00:36:38;96463.09;;;10.28;60.72
83691;BME280;73671;43.220;0.064;2024-03-08T00:39:04;96457.25;;;10.35;60.63
83691;BME280;73671;43.220;0.064;2024-03-08T00:41:32;96460.66;;;10.30;60.43
83691;BME280;73671;43.220;0.064;2024-03-08T00:43:57;96454.25;;;10.33;60.33
83691;BME280;73671;43.220;0.064;2024-03-08T00:46:23;96460.22;;;10.23;60.54
83691;BME280;73671;43.220;0.064;2024-03-08T00:48:48;96449.78;;;10.30;59.98
83691;BME280;73671;43.220;0.064;2024-03-08T00:51:14;96441.31;;;10.28;60.10
83691;BME280;73671;43.220;0.064;2024-03-08T00:53:41;96431.94;;;10.29;59.46
83691;BME280;73671;43.220;0.064;2024-03-08T00:56:08;96422.56;;;10.30;58.92
83691;BME280;73671;43.220;0.064;2024-03-08T00:58:38;96427.25;;;10.30;58.37
83691;BME280;73671;43.220;0.064;2024-03-08T01:01:04;96436.81;;;10.25;57.93
83691;BME280;73671;43.220;0.064;2024-03-08T01:03:32;96429.97;;;10.30;57.85
83691;BME280;73671;43.220;0.064;2024-03-08T01:05:59;96417.66;;;10.34;58.07
83691;BME280;73671;43.220;0.064;2024-03-08T01:08:26;96444.88;;;10.34;57.75
83691;BME280;73671;43.220;0.064;2024-03-08T01:10:52;96437.00;;;10.36;57.42
83691;BME280;73671;43.220;0.064;2024-03-08T01:13:18;96413.66;;;10.30;58.04
83691;BME280;73671;43.220;0.064;2024-03-08T01:15:44;96408.97;;;10.30;57.65
83691;BME280;73671;43.220;0.064;2024-03-08T01:18:10;96399.84;;;10.33;57.25
83691;BME280;73671;43.220;0.064;2024-03-08T01:20:36;96414.69;;;10.32;57.28
83691;BME280;73671;43.220;0.064;2024-03-08T01:23:01;96411.09;;;10.26;57.87
83691;BME280;73671;43.220;0.064;2024-03-08T01:25:27;96403.59;;;10.21;58.37
83691;BME280;73671;43.220;0.064;2024-03-08T01:41:19;96364.03;;;9.90;60.06
83691;BME280;73671;43.220;0.064;2024-03-08T01:43:45;96375.75;;;9.82;61.63
83691;BME280;73671;43.220;0.064;2024-03-08T01:46:12;96360.41;;;9.64;62.16
83691;BME280;73671;43.220;0.064;2024-03-08T01:48:40;96353.34;;;9.72;61.54
83691;BME280;73671;43.220;0.064;2024-03-08T01:51:06;96373.59;;;9.71;61.96
83691;BME280;73671;43.220;0.064;2024-03-08T01:53:33;96357.09;;;9.60;62.13
83691;BME280;73671;43.220;0.064;2024-03-08T01:56:00;96368.91;;;9.57;62.21
83691;BME280;73671;43.220;0.064;2024-03-08T01:58:29;96378.63;;;9.48;62.07
83691;BME280;73671;43.220;0.064;2024-03-08T02:00:56;96369.19;;;9.59;61.49
83691;BME280;73671;43.220;0.064;2024-03-08T02:03:23;96363.13;;;9.64;61.32
83691;BME280;73671;43.220;0.064;2024-03-08T02:05:48;96363.28;;;9.60;61.87
83691;BME280;73671;43.220;0.064;2024-03-08T02:08:14;96372.78;;;9.26;63.30
83691;BME280;73671;43.220;0.064;2024-03-08T02:10:44;96381.59;;;9.21;62.83
83691;BME280;73671;43.220;0.064;2024-03-08T02:13:10;96387.78;;;9.36;62.25
83691;BME280;73671;43.220;0.064;2024-03-08T02:15:53;96390.16;;;9.43;61.94
83691;BME280;73671;43.220;0.064;2024-03-08T02:18:19;96378.91;;;9.50;61.66
83691;BME280;73671;43.220;0.064;2024-03-08T02:20:50;96384.63;;;9.52;61.43
83691;BME280;73671;43.220;0.064;2024-03-08T02:23:16;96388.84;;;9.53;61.87
83691;BME280;73671;43.220;0.064;2024-03-08T02:25:42;96387.66;;;9.54;61.30
83691;BME280;73671;43.220;0.064;2024-03-08T02:28:11;96369.81;;;9.53;61.37
83691;BME280;73671;43.220;0.064;2024-03-08T02:30:37;96372.44;;;9.33;62.16
83691;BME280;73671;43.220;0.064;2024-03-08T02:33:04;96363.50;;;8.94;63.47
83691;BME280;73671;43.220;0.064;2024-03-08T02:35:29;96360.56;;;9.06;62.93
83691;BME280;73671;43.220;0.064;2024-03-08T02:37:55;96367.25;;;8.96;62.99
83691;BME280;73671;43.220;0.064;2024-03-08T02:40:20;96366.00;;;9.06;62.69
83691;BME280;73671;43.220;0.064;2024-03-08T02:42:47;96358.28;;;8.90;63.63
83691;BME280;73671;43.220;0.064;2024-03-08T02:45:13;96354.56;;;9.02;62.69
83691;BME280;73671;43.220;0.064;2024-03-08T02:47:38;96341.56;;;9.06;62.36
83691;BME280;73671;43.220;0.064;2024-03-08T02:50:05;96343.94;;;9.13;62.34
83691;BME280;73671;43.220;0.064;2024-03-08T02:52:33;96345.22;;;9.18;62.20
83691;BME280;73671;43.220;0.064;2024-03-08T02:54:59;96347.50;;;9.20;62.21
83691;BME280;73671;43.220;0.064;2024-03-08T02:57:24;96358.19;;;9.23;61.68
83691;BME280;73671;43.220;0.064;2024-03-08T02:59:50;96356.09;;;9.18;62.77
83691;BME280;73671;43.220;0.064;2024-03-08T03:02:15;96347.78;;;9.22;62.37
83691;BME280;73671;43.220;0.064;2024-03-08T03:04:41;96349.00;;;9.21;62.35
83691;BME280;73671;43.220;0.064;2024-03-08T03:07:07;96344.78;;;9.20;62.51
83691;BME280;73671;43.220;0.064;2024-03-08T03:09:32;96352.47;;;9.21;63.05
83691;BME280;73671;43.220;0.064;2024-03-08T03:11:58;96349.25;;;9.23;62.97
83691;BME280;73671;43.220;0.064;2024-03-08T03:14:24;96351.81;;;9.26;62.92
83691;BME280;73671;43.220;0.064;2024-03-08T03:16:52;96343.22;;;9.28;63.02
83691;BME280;73671;43.220;0.064;2024-03-08T03:19:17;96346.47;;;9.32;62.48
83691;BME280;73671;43.220;0.064;2024-03-08T03:21:43;96347.69;;;9.31;63.19
83691;BME280;73671;43.220;0.064;2024-03-08T03:24:09;96350.72;;;9.33;62.94
83691;BME280;73671;43.220;0.064;2024-03-08T03:26:38;96354.63;;;9.32;62.91
83691;BME280;73671;43.220;0.064;2024-03-08T03:29:07;96346.19;;;9.30;62.68
83691;BME280;73671;43.220;0.064;2024-03-08T03:31:34;96338.31;;;9.17;63.63
83691;BME280;73671;43.220;0.064;2024-03-08T03:34:01;96346.91;;;9.16;63.93
83691;BME280;73671;43.220;0.064;2024-03-08T03:36:32;96351.16;;;8.93;65.20
83691;BME280;73671;43.220;0.064;2024-03-08T03:38:58;96370.63;;;8.91;64.99
83691;BME280;73671;43.220;0.064;2024-03-08T03:41:35;96363.91;;;9.01;63.85
83691;BME280;73671;43.220;0.064;2024-03-08T03:44:00;96371.75;;;8.99;64.70
83691;BME280;73671;43.220;0.064;2024-03-08T03:46:25;96376.00;;;9.00;63.97
83691;BME280;73671;43.220;0.064;2024-03-08T03:48:53;96376.84;;;8.58;65.61
83691;BME280;73671;43.220;0.064;2024-03-08T03:51:18;96371.34;;;8.43;66.20
83691;BME280;73671;43.220;0.064;2024-03-08T03:53:44;96359.75;;;8.34;66.34
83691;BME280;73671;43.220;0.064;2024-03-08T03:56:09;96366.84;;;8.40;66.37
83691;BME280;73671;43.220;0.064;2024-03-08T03:58:36;96369.16;;;8.23;67.09
83691;BME280;73671;43.220;0.064;2024-03-08T04:01:01;96396.19;;;8.33;66.71
83691;BME280;73671;43.220;0.064;2024-03-08T04:03:29;96406.56;;;8.53;65.75
83691;BME280;73671;43.220;0.064;2024-03-08T04:05:54;96404.56;;;8.62;65.61
83691;BME280;73671;43.220;0.064;2024-03-08T04:08:20;96406.47;;;8.71;64.93
83691;BME280;73671;43.220;0.064;2024-03-08T04:10:46;96419.38;;;8.85;65.07
83691;BME280;73671;43.220;0.064;2024-03-08T04:13:11;96408.63;;;8.91;65.02
83691;BME280;73671;43.220;0.064;2024-03-08T04:15:37;96406.00;;;8.97;64.82
83691;BME280;73671;43.220;0.064;2024-03-08T04:18:03;96397.88;;;8.97;65.19
83691;BME280;73671;43.220;0.064;2024-03-08T04:20:29;96377.97;;;9.00;64.39
83691;BME280;73671;43.220;0.064;2024-03-08T04:22:55;96392.56;;;9.02;64.78
83691;BME280;73671;43.220;0.064;2024-03-08T04:25:21;96382.47;;;9.03;64.47
83691;BME280;73671;43.220;0.064;2024-03-08T04:27:47;96401.56;;;9.08;64.22
83691;BME280;73671;43.220;0.064;2024-03-08T04:30:13;96396.78;;;9.03;64.47
83691;BME280;73671;43.220;0.064;2024-03-08T04:32:39;96401.56;;;9.08;64.56
83691;BME280;73671;43.220;0.064;2024-03-08T04:35:06;96413.00;;;9.12;64.29
83691;BME280;73671;43.220;0.064;2024-03-08T04:37:33;96407.41;;;9.16;63.70
83691;BME280;73671;43.220;0.064;2024-03-08T04:39:59;96402.25;;;9.18;64.40
83691;BME280;73671;43.220;0.064;2024-03-08T04:42:25;96404.81;;;9.22;64.02
83691;BME280;73671;43.220;0.064;2024-03-08T04:44:51;96407.81;;;9.24;64.21
83691;BME280;73671;43.220;0.064;2024-03-08T04:47:18;96414.16;;;9.21;63.68
83691;BME280;73671;43.220;0.064;2024-03-08T04:49:44;96410.22;;;9.22;63.42
83691;BME280;73671;43.220;0.064;2024-03-08T04:52:09;96403.13;;;9.24;63.31
83691;BME280;73671;43.220;0.064;2024-03-08T04:54:35;96398.44;;;9.25;64.08
83691;BME280;73671;43.220;0.064;2024-03-08T04:57:00;96390.34;;;9.16;63.97
83691;BME280;73671;43.220;0.064;2024-03-08T04:59:26;96387.53;;;9.10;63.87
83691;BME280;73671;43.220;0.064;2024-03-08T05:01:52;96388.34;;;9.01;64.28
83691;BME280;73671;43.220;0.064;2024-03-08T05:04:18;96386.94;;;9.06;64.27
83691;BME280;73671;43.220;0.064;2024-03-08T05:06:43;96396.38;;;8.72;66.35
83691;BME280;73671;43.220;0.064;2024-03-08T05:09:08;96394.44;;;8.63;66.71
83691;BME280;73671;43.220;0.064;2024-03-08T05:11:44;96382.25;;;8.58;66.54
83691;BME280;73671;43.220;0.064;2024-03-08T05:14:10;96393.06;;;8.67;66.47
83691;BME280;73671;43.220;0.064;2024-03-08T05:16:36;96401.53;;;8.60;66.40
83691;BME280;73671;43.220;0.064;2024-03-08T05:19:02;96420.13;;;8.53;67.10
83691;BME280;73671;43.220;0.064;2024-03-08T05:21:28;96404.34;;;8.33;66.88
83691;BME280;73671;43.220;0.064;2024-03-08T05:23:54;96398.78;;;8.27;67.34
83691;BME280;73671;43.220;0.064;2024-03-08T05:26:20;96400.13;;;8.41;66.23
83691;BME280;73671;43.220;0.064;2024-03-08T05:28:45;96404.50;;;8.29;65.98
83691;BME280;73671;43.220;0.064;2024-03-08T05:31:20;96414.97;;;8.12;67.12
83691;BME280;73671;43.220;0.064;2024-03-08T05:33:49;96406.97;;;8.18;67.49
83691;BME280;73671;43.220;0.064;2024-03-08T05:36:15;96410.69;;;8.29;66.55
83691;BME280;73671;43.220;0.064;2024-03-08T05:38:42;96401.94;;;8.35;66.77
83691;BME280;73671;43.220;0.064;2024-03-08T05:41:09;96397.53;;;8.37;66.65
83691;BME280;73671;43.220;0.064;2024-03-08T05:43:34;96407.31;;;8.53;65.57
83691;BME280;73671;43.220;0.064;2024-03-08T05:46:00;96403.34;;;8.63;65.27
83691;BME280;73671;43.220;0.064;2024-03-08T05:48:25;96406.47;;;8.71;65.44
83691;BME280;73671;43.220;0.064;2024-03-08T05:50:51;96404.63;;;8.77;64.77
83691;BME280;73671;43.220;0.064;2024-03-08T05:53:16;96412.91;;;8.83;65.09
83691;BME280;73671;43.220;0.064;2024-03-08T05:55:41;96419.06;;;8.83;64.88
83691;BME280;73671;43.220;0.064;2024-03-08T05:58:07;96428.84;;;8.90;64.42
83691;BME280;73671;43.220;0.064;2024-03-08T06:00:33;96429.59;;;8.90;64.23
83691;BME280;73671;43.220;0.064;2024-03-08T06:03:00;96423.81;;;8.74;65.38
83691;BME280;73671;43.220;0.064;2024-03-08T06:05:25;96430.09;;;8.80;64.77
83691;BME280;73671;43.220;0.064;2024-03-08T06:07:50;96430.66;;;8.84;64.71
83691;BME280;73671;43.220;0.064;2024-03-08T06:10:18;96448.44;;;8.85;64.21
83691;BME280;73671;43.220;0.064;2024-03-08T06:12:44;96458.06;;;8.95;63.92
83691;BME280;73671;43.220;0.064;2024-03-08T06:15:11;96462.41;;;9.02;63.72
83691;BME280;73671;43.220;0.064;2024-03-08T06:17:40;96459.06;;;9.07;64.14
83691;BME280;73671;43.220;0.064;2024-03-08T06:20:06;96457.66;;;9.11;63.40
83691;BME280;73671;43.220;0.064;2024-03-08T06:22:37;96454.78;;;9.15;63.64
83691;BME280;73671;43.220;0.064;2024-03-08T06:25:06;96447.25;;;9.10;64.13
83691;BME280;73671;43.220;0.064;2024-03-08T06:27:32;96439.22;;;9.16;63.90
83691;BME280;73671;43.220;0.064;2024-03-08T06:29:59;96434.38;;;9.20;63.62
83691;BME280;73671;43.220;0.064;2024-03-08T06:32:25;96430.28;;;9.24;63.76
83691;BME280;73671;43.220;0.064;2024-03-08T06:34:50;96427.09;;;9.26;64.01
83691;BME280;73671;43.220;0.064;2024-03-08T06:37:16;96431.59;;;9.29;63.98
83691;BME280;73671;43.220;0.064;2024-03-08T06:39:49;96426.16;;;9.29;64.36
83691;BME280;73671;43.220;0.064;2024-03-08T06:42:16;96419.50;;;9.30;64.38
83691;BME280;73671;43.220;0.064;2024-03-08T06:44:42;96408.94;;;9.32;64.40
83691;BME280;73671;43.220;0.064;2024-03-08T06:47:14;96420.84;;;9.34;64.72
83691;BME280;73671;43.220;0.064;2024-03-08T06:49:41;96418.91;;;9.35;64.24
83691;BME280;73671;43.220;0.064;2024-03-08T06:52:06;96414.94;;;9.36;63.67
83691;BME280;73671;43.220;0.064;2024-03-08T06:54:34;96406.81;;;9.36;63.89
83691;BME280;73671;43.220;0.064;2024-03-08T06:57:02;96403.16;;;9.39;63.73
83691;BME280;73671;43.220;0.064;2024-03-08T06:59:28;96414.00;;;9.39;63.38
83691;BME280;73671;43.220;0.064;2024-03-08T07:01:54;96427.03;;;9.35;63.99
83691;BME280;73671;43.220;0.064;2024-03-08T07:04:19;96397.53;;;9.28;64.27
83691;BME280;73671;43.220;0.064;2024-03-08T07:06:47;96380.66;;;9.24;65.10
83691;BME280;73671;43.220;0.064;2024-03-08T07:09:15;96372.97;;;9.22;64.66
83691;BME280;73671;43.220;0.064;2024-03-08T07:11:42;96374.25;;;9.12;65.18
83691;BME280;73671;43.220;0.064;2024-03-08T07:14:08;96363.56;;;9.08;64.90
83691;BME280;73671;43.220;0.064;2024-03-08T07:16:34;96357.09;;;9.06;64.85
83691;BME280;73671;43.220;0.064;2024-03-08T07:19:01;96365.22;;;9.06;65.00
83691;BME280;73671;43.220;0.064;2024-03-08T07:21:26;96369.41;;;9.16;64.64
83691;BME280;73671;43.220;0.064;2024-03-08T07:23:52;96390.34;;;9.16;64.63
83691;BME280;73671;43.220;0.064;2024-03-08T07:26:26;96379.28;;;9.04;64.86
83691;BME280;73671;43.220;0.064;2024-03-08T07:28:52;96382.41;;;9.12;65.10
83691;BME280;73671;43.220;0.064;2024-03-08T07:31:19;96385.13;;;9.12;64.66
83691;BME280;73671;43.220;0.064;2024-03-08T07:33:51;96377.25;;;9.14;64.69
83691;BME280;73671;43.220;0.064;2024-03-08T07:36:16;96378.88;;;9.21;64.34
83691;BME280;73671;43.220;0.064;2024-03-08T07:38:41;96389.84;;;9.26;64.91
83691;BME280;73671;43.220;0.064;2024-03-08T07:41:07;96391.16;;;9.31;65.04
83691;BME280;73671;43.220;0.064;2024-03-08T07:43:32;96391.16;;;9.31;65.00
83691;BME280;73671;43.220;0.064;2024-03-08T07:45:58;96399.59;;;9.33;64.24
83691;BME280;73671;43.220;0.064;2024-03-08T07:48:23;96397.91;;;9.36;64.66
83691;BME280;73671;43.220;0.064;2024-03-08T07:50:49;96404.09;;;9.36;64.70
83691;BME280;73671;43.220;0.064;2024-03-08T07:53:15;96388.53;;;9.37;65.23
83691;BME280;73671;43.220;0.064;2024-03-08T07:55:40;96390.22;;;9.34;65.15
83691;BME280;73671;43.220;0.064;2024-03-08T07:58:07;96387.22;;;9.32;65.55
83691;BME280;73671;43.220;0.064;2024-03-08T08:00:36;96376.63;;;9.34;65.56
83691;BME280;73671;43.220;0.064;2024-03-08T08:03:02;96380.38;;;9.37;65.57
83691;BME280;73671;43.220;0.064;2024-03-08T08:05:27;96377.50;;;9.40;65.36
83691;BME280;73671;43.220;0.064;2024-03-08T08:07:53;96370.84;;;9.41;65.61
83691;BME280;73671;43.220;0.064;2024-03-08T08:10:18;96380.50;;;9.42;65.49
83691;BME280;73671;43.220;0.064;2024-03-08T08:12:49;96387.16;;;9.41;66.16
83691;BME280;73671;43.220;0.064;2024-03-08T08:15:15;96388.38;;;9.40;65.67
83691;BME280;73671;43.220;0.064;2024-03-08T08:17:44;96382.94;;;9.40;65.91
83691;BME280;73671;43.220;0.064;2024-03-08T08:20:11;96381.25;;;9.43;65.87
83691;BME280;73671;43.220;0.064;2024-03-08T08:22:38;96394.34;;;9.44;65.82
83691;BME280;73671;43.220;0.064;2024-03-08T08:25:05;96398.28;;;9.43;65.82
83691;BME280;73671;43.220;0.064;2024-03-08T08:27:30;96412.16;;;9.45;66.15
83691;BME280;73671;43.220;0.064;2024-03-08T08:29:56;96422.84;;;9.49;66.08
83691;BME280;73671;43.220;0.064;2024-03-08T08:32:22;96434.47;;;9.49;66.00
83691;BME280;73671;43.220;0.064;2024-03-08T08:34:47;96441.69;;;9.52;65.54
83691;BME280;73671;43.220;0.064;2024-03-08T08:37:13;96437.28;;;9.55;65.59
83691;BME280;73671;43.220;0.064;2024-03-08T08:39:38;96429.44;;;9.57;65.58
83691;BME280;73671;43.220;0.064;2024-03-08T08:42:04;96422.31;;;9.60;65.37
83691;BME280;73671;43.220;0.064;2024-03-08T08:44:29;96426.81;;;9.63;65.45
83691;BME280;73671;43.220;0.064;2024-03-08T08:46:57;96427.56;;;9.63;65.84
83691;BME280;73671;43.220;0.064;2024-03-08T08:49:22;96423.63;;;9.64;65.50
83691;BME280;73671;43.220;0.064;2024-03-08T08:51:52;96424.38;;;9.65;66.12
83691;BME280;73671;43.220;0.064;2024-03-08T08:54:18;96411.38;;;9.69;65.64
83691;BME280;73671;43.220;0.064;2024-03-08T08:56:44;96399.47;;;9.66;65.48
83691;BME280;73671;43.220;0.064;2024-03-08T08:59:10;96389.91;;;9.71;64.96
83691;BME280;73671;43.220;0.064;2024-03-08T09:01:39;96385.41;;;9.68;65.04
83691;BME280;73671;43.220;0.064;2024-03-08T09:04:05;96397.28;;;9.70;65.03
83691;BME280;73671;43.220;0.064;2024-03-08T09:06:30;96390.19;;;9.73;65.32
83691;BME280;73671;43.220;0.064;2024-03-08T09:08:56;96394.22;;;9.77;65.26
83691;BME280;73671;43.220;0.064;2024-03-08T09:11:21;96400.97;;;9.82;64.75
83691;BME280;73671;43.220;0.064;2024-03-08T09:13:47;96405.47;;;9.85;65.18
83691;BME280;73671;43.220;0.064;2024-03-08T09:16:12;96401.53;;;9.86;64.76
83691;BME280;73671;43.220;0.064;2024-03-08T09:18:38;96388.44;;;9.85;65.37
83691;BME280;73671;43.220;0.064;2024-03-08T09:21:03;96379.59;;;9.75;65.66
83691;BME280;73671;43.220;0.064;2024-03-08T09:23:30;96367.81;;;9.78;65.83
83691;BME280;73671;43.220;0.064;2024-03-08T09:25:56;96370.81;;;9.80;65.10
83691;BME280;73671;43.220;0.064;2024-03-08T09:28:25;96376.78;;;9.84;65.75
83691;BME280;73671;43.220;0.064;2024-03-08T09:30:52;96376.41;;;9.91;65.67
83691;BME280;73671;43.220;0.064;2024-03-08T09:33:18;96375.50;;;9.94;65.43
83691;BME280;73671;43.220;0.064;2024-03-08T09:35:47;96363.94;;;10.00;65.62
83691;BME280;73671;43.220;0.064;2024-03-08T09:38:14;96360.00;;;10.01;65.44
83691;BME280;73671;43.220;0.064;2024-03-08T09:40:43;96339.38;;;10.09;65.29
83691;BME280;73671;43.220;0.064;2024-03-08T09:43:09;96338.72;;;10.14;65.10
83691;BME280;73671;43.220;0.064;2024-03-08T09:45:37;96345.25;;;10.22;65.06
83691;BME280;73671;43.220;0.064;2024-03-08T09:48:15;96340.38;;;10.26;64.34
83691;BME280;73671;43.220;0.064;2024-03-08T09:50:42;96336.06;;;10.34;64.17
83691;BME280;73671;43.220;0.064;2024-03-08T09:53:08;96332.47;;;10.43;64.01
83691;BME280;73671;43.220;0.064;2024-03-08T09:55:38;96323.56;;;10.43;63.64
83691;BME280;73671;43.220;0.064;2024-03-08T09:58:08;96315.69;;;10.45;64.01
83691;BME280;73671;43.220;0.064;2024-03-08T10:00:42;96308.47;;;10.42;63.65
83691;BME280;73671;43.220;0.064;2024-03-08T10:03:08;96304.13;;;10.50;63.92
83691;BME280;73671;43.220;0.064;2024-03-08T10:05:34;96295.22;;;10.70;63.36
83691;BME280;73671;43.220;0.064;2024-03-08T10:08:00;96287.19;;;10.60;63.76
83691;BME280;73671;43.220;0.064;2024-03-08T10:10:25;96282.78;;;10.63;63.43
83691;BME280;73671;43.220;0.064;2024-03-08T10:12:51;96282.91;;;10.74;63.50
83691;BME280;73671;43.220;0.064;2024-03-08T10:15:17;96272.84;;;10.80;62.86
83691;BME280;73671;43.220;0.064;2024-03-08T10:17:43;96275.09;;;10.82;62.73
83691;BME280;73671;43.220;0.064;2024-03-08T10:20:15;96270.91;;;10.87;61.96
83691;BME280;73671;43.220;0.064;2024-03-08T10:22:41;96276.22;;;10.96;62.58
83691;BME280;73671;43.220;0.064;2024-03-08T10:25:11;96276.63;;;11.09;62.36
83691;BME280;73671;43.220;0.064;2024-03-08T10:27:38;96272.88;;;11.33;61.74
83691;BME280;73671;43.220;0.064;2024-03-08T10:30:07;96264.88;;;11.50;61.12
83691;BME280;73671;43.220;0.064;2024-03-08T10:32:35;96255.09;;;11.69;60.83
83691;BME280;73671;43.220;0.064;2024-03-08T10:35:01;96244.88;;;11.90;60.55
83691;BME280;73671;43.220;0.064;2024-03-08T10:37:27;96248.72;;;12.09;59.37
83691;BME280;73671;43.220;0.064;2024-03-08T10:40:03;96252.06;;;12.30;58.87
83691;BME280;73671;43.220;0.064;2024-03-08T10:42:51;96243.84;;;12.85;57.50
83691;BME280;73671;43.220;0.064;2024-03-08T10:45:43;96243.44;;;13.26;56.48
83691;BME280;73671;43.220;0.064;2024-03-08T10:48:29;96243.44;;;13.26;56.48
83691;BME280;73671;43.220;0.064;2024-03-08T10:51:04;96231.31;;;14.00;55.27
83691;BME280;73671;43.220;0.064;2024-03-08T10:53:30;96231.31;;;14.00;55.27
83691;BME280;73671;43.220;0.064;2024-03-08T10:55:59;96231.31;;;14.00;55.27
83691;BME280;73671;43.220;0.064;2024-03-08T10:58:26;96231.31;;;14.00;55.27
83691;BME280;73671;43.220;0.064;2024-03-08T11:00:56;96215.47;;;16.06;50.06
83691;BME280;73671;43.220;0.064;2024-03-08T11:08:54;96215.47;;;16.06;50.06
83691;BME280;73671;43.220;0.064;2024-03-08T11:11:30;96215.47;;;16.06;50.06
83691;BME280;73671;43.220;0.064;2024-03-08T11:13:57;96215.47;;;16.06;50.06
83691;BME280;73671;43.220;0.064;2024-03-08T11:18:55;96228.31;;;17.42;45.08
83691;BME280;73671;43.220;0.064;2024-03-08T11:21:25;96228.31;;;17.42;45.08
83691;BME280;73671;43.220;0.064;2024-03-08T11:24:08;71229.28;;;-146.39;100.00
83691;BME280;73671;43.220;0.064;2024-03-08T11:26:36;71229.28;;;-146.39;100.00
83691;BME280;73671;43.220;0.064;2024-03-08T11:31:52;71229.28;;;-146.39;100.00
83691;BME280;73671;43.220;0.064;2024-03-08T11:34:19;71229.28;;;-146.39;100.00
83691;BME280;73671;43.220;0.064;2024-03-08T11:36:47;71229.28;;;-146.39;100.00
83691;BME280;73671;43.220;0.064;2024-03-08T11:39:13;71229.28;;;-146.39;100.00
83691;BME280;73671;43.220;0.064;2024-03-08T11:41:40;71229.28;;;-146.39;100.00
83691;BME280;73671;43.220;0.064;2024-03-08T11:44:07;71229.28;;;-146.39;100.00
83691;BME280;73671;43.220;0.064;2024-03-08T11:46:33;71229.28;;;-146.39;100.00
83691;BME280;73671;43.220;0.064;2024-03-08T11:48:59;71229.28;;;-146.39;100.00
83691;BME280;73671;43.220;0.064;2024-03-08T11:51:26;71229.28;;;-146.39;100.00
83691;BME280;73671;43.220;0.064;2024-03-08T11:53:52;71229.28;;;-146.39;100.00
83691;BME280;73671;43.220;0.064;2024-03-08T11:56:17;71229.28;;;-146.39;100.00
83691;BME280;73671;43.220;0.064;2024-03-08T11:58:53;71229.28;;;-146.39;100.00
83691;BME280;73671;43.220;0.064;2024-03-08T12:01:22;71229.28;;;-146.39;100.00
83691;BME280;73671;43.220;0.064;2024-03-08T12:03:55;71229.28;;;-146.39;100.00
83691;BME280;73671;43.220;0.064;2024-03-08T12:06:24;71229.28;;;-146.39;100.00
83691;BME280;73671;43.220;0.064;2024-03-08T12:08:49;71229.28;;;-146.39;100.00
83691;BME280;73671;43.220;0.064;2024-03-08T12:11:17;71229.28;;;-146.39;100.00
83691;BME280;73671;43.220;0.064;2024-03-08T12:13:44;71229.28;;;-146.39;100.00
83691;BME280;73671;43.220;0.064;2024-03-08T12:16:11;71229.28;;;-146.39;100.00
83691;BME280;73671;43.220;0.064;2024-03-08T12:18:38;71229.28;;;-146.39;100.00
83691;BME280;73671;43.220;0.064;2024-03-08T12:21:10;71229.28;;;-146.39;100.00
83691;BME280;73671;43.220;0.064;2024-03-08T12:23:38;71229.28;;;-146.39;100.00
83691;BME280;73671;43.220;0.064;2024-03-08T12:26:15;71229.28;;;-146.39;100.00
83691;BME280;73671;43.220;0.064;2024-03-08T12:28:42;71229.28;;;-146.39;100.00
83691;BME280;73671;43.220;0.064;2024-03-08T12:31:12;71229.28;;;-146.39;100.00
83691;BME280;73671;43.220;0.064;2024-03-08T12:33:52;71229.28;;;-146.39;100.00
83691;BME280;73671;43.220;0.064;2024-03-08T12:36:19;71229.28;;;-146.39;100.00
83691;BME280;73671;43.220;0.064;2024-03-08T12:38:48;71229.28;;;-146.39;100.00
83691;BME280;73671;43.220;0.064;2024-03-08T12:41:14;71229.28;;;-146.39;100.00
83691;BME280;73671;43.220;0.064;2024-03-08T12:43:40;71229.28;;;-146.39;100.00
83691;BME280;73671;43.220;0.064;2024-03-08T12:46:06;71229.28;;;-146.39;100.00
83691;BME280;73671;43.220;0.064;2024-03-08T12:48:36;71229.28;;;-146.39;100.00
83691;BME280;73671;43.220;0.064;2024-03-08T12:51:06;71229.28;;;-146.39;100.00
83691;BME280;73671;43.220;0.064;2024-03-08T12:53:33;71229.28;;;-146.39;100.00
83691;BME280;73671;43.220;0.064;2024-03-08T12:55:58;71229.28;;;-146.39;100.00
83691;BME280;73671;43.220;0.064;2024-03-08T12:58:24;71229.28;;;-146.39;100.00
83691;BME280;73671;43.220;0.064;2024-03-08T13:00:51;71229.28;;;-146.39;100.00
83691;BME280;73671;43.220;0.064;2024-03-08T13:03:17;71229.28;;;-146.39;100.00
83691;BME280;73671;43.220;0.064;2024-03-08T13:05:42;71229.28;;;-146.39;100.00
83691;BME280;73671;43.220;0.064;2024-03-08T13:08:08;71229.28;;;-146.39;100.00
83691;BME280;73671;43.220;0.064;2024-03-08T13:10:41;71229.28;;;-146.39;100.00
83691;BME280;73671;43.220;0.064;2024-03-08T13:13:11;71229.28;;;-146.39;100.00
83691;BME280;73671;43.220;0.064;2024-03-08T13:15:37;71229.28;;;-146.39;100.00
83691;BME280;73671;43.220;0.064;2024-03-08T13:18:03;71229.28;;;-146.39;100.00
83691;BME280;73671;43.220;0.064;2024-03-08T13:20:28;71229.28;;;-146.39;100.00
83691;BME280;73671;43.220;0.064;2024-03-08T13:22:55;71229.28;;;-146.39;100.00
83691;BME280;73671;43.220;0.064;2024-03-08T13:25:21;71229.28;;;-146.39;100.00